Time;durP1;ratioP1;P1;durP2;ratioP2;P2;SDS_P1;SDS_P2;PMS_P1;PMS_P2;Temp;Humidity;BMP_temperature;BMP_pressure;BME280_temperature;BME280_humidity;BME280_pressure;Samples;Min_cycle;Max_cycle;Signal;HPM_P1;HPM_P2
2021/08/21 00:01:29;;;;;;;3.28;2.70;;;15.00;85.60;;;;;;4915959;29;20091;-81
2021/08/21 00:03:55;;;;;;;3.55;2.90;;;14.90;86.40;;;;;;4906459;29;20119;-80
2021/08/21 00:06:21;;;;;;;4.15;3.20;;;14.80;87.20;;;;;;4919504;29;20043;-81
2021/08/21 00:08:47;;;;;;;5.75;3.47;;;14.80;88.00;;;;;;4915327;29;20044;-82
2021/08/21 00:11:12;;;;;;;5.85;3.85;;;14.80;88.70;;;;;;4915124;29;20044;-81
2021/08/21 00:13:38;;;;;;;4.35;3.42;;;14.80;89.10;;;;;;4916331;29;20437;-81
2021/08/21 00:16:04;;;;;;;5.00;3.80;;;14.70;89.50;;;;;;4920021;29;20039;-81
2021/08/21 00:18:30;;;;;;;4.72;3.40;;;14.60;89.90;;;;;;4903947;29;20031;-81
2021/08/21 00:20:55;;;;;;;5.88;3.08;;;14.70;88.30;;;;;;4917891;29;20493;-81
2021/08/21 00:23:21;;;;;;;4.47;3.28;;;14.70;87.70;;;;;;4901360;29;20824;-81
2021/08/21 00:25:47;;;;;;;8.32;4.30;;;14.80;87.30;;;;;;4916727;29;20418;-82
2021/08/21 00:28:13;;;;;;;4.25;3.50;;;14.90;87.70;;;;;;4899968;29;20044;-81
2021/08/21 00:30:38;;;;;;;5.30;3.35;;;14.90;86.60;;;;;;4916185;29;20083;-81
2021/08/21 00:33:04;;;;;;;4.65;3.30;;;14.90;86.30;;;;;;4914771;29;20039;-81
2021/08/21 00:35:30;;;;;;;4.38;3.25;;;14.90;86.80;;;;;;4914986;29;20825;-82
2021/08/21 00:37:56;;;;;;;3.40;3.03;;;14.90;86.30;;;;;;4902002;29;20409;-82
2021/08/21 00:40:21;;;;;;;4.85;3.35;;;14.90;85.70;;;;;;4902046;29;20504;-81
2021/08/21 00:42:51;;;;;;;6.85;3.78;;;14.80;86.80;;;;;;4915518;29;20032;-81
2021/08/21 00:45:16;;;;;;;4.03;3.05;;;14.70;87.60;;;;;;4917873;29;20473;-82
2021/08/21 00:47:42;;;;;;;4.10;3.08;;;14.60;88.30;;;;;;4920380;29;20127;-81
2021/08/21 00:50:08;;;;;;;5.88;3.58;;;14.50;88.90;;;;;;4900791;29;20024;-80
2021/08/21 00:52:34;;;;;;;4.05;3.65;;;14.50;89.30;;;;;;4915618;29;20495;-81
2021/08/21 00:55:00;;;;;;;6.43;3.42;;;14.40;89.30;;;;;;4919023;29;20040;-82
2021/08/21 00:57:29;;;;;;;4.25;3.35;;;14.30;89.70;;;;;;4918620;29;20028;-81
2021/08/21 00:59:54;;;;;;;7.15;3.65;;;14.30;89.90;;;;;;4903895;29;20036;-82
2021/08/21 01:02:21;;;;;;;3.38;2.33;;;14.30;89.40;;;;;;4917006;28;20039;-83
2021/08/21 01:04:50;;;;;;;3.53;2.20;;;14.20;87.50;;;;;;4915503;29;20043;-83
2021/08/21 01:07:22;;;;;;;1.90;1.80;;;14.00;88.10;;;;;;4912437;29;20076;-83
2021/08/21 01:09:47;;;;;;;2.45;2.00;;;13.90;88.30;;;;;;4901205;29;20036;-84
2021/08/21 01:12:16;;;;;;;2.53;2.33;;;14.00;88.10;;;;;;4918065;29;20056;-84
2021/08/21 01:14:42;;;;;;;3.22;2.50;;;14.00;88.60;;;;;;4904411;29;20032;-84
2021/08/21 01:17:09;;;;;;;5.60;2.78;;;14.10;88.30;;;;;;4918161;29;20036;-84
2021/08/21 01:19:40;;;;;;;3.00;2.70;;;14.10;88.30;;;;;;4917004;29;20508;-84
2021/08/21 01:22:09;;;;;;;2.75;2.40;;;14.10;88.10;;;;;;4919235;29;20028;-84
2021/08/21 01:24:39;;;;;;;;;;;14.00;88.30;;;;;;4921542;29;20040;-84
2021/08/21 01:27:04;;;;;;;2.72;2.53;;;14.10;88.10;;;;;;4901716;29;19911;-84
2021/08/21 01:29:30;;;;;;;2.88;2.40;;;14.20;87.60;;;;;;4890090;29;20036;-83
2021/08/21 01:31:56;;;;;;;2.70;2.50;;;14.20;87.40;;;;;;4919934;28;20365;-83
2021/08/21 01:34:22;;;;;;;3.65;2.75;;;14.10;87.80;;;;;;4905089;29;20028;-83
2021/08/21 01:36:50;;;;;;;2.83;2.58;;;14.10;87.40;;;;;;4896790;29;20553;-84
2021/08/21 01:39:16;;;;;;;3.40;2.42;;;14.20;87.20;;;;;;4899259;29;20028;-84
2021/08/21 01:41:43;;;;;;;6.35;3.38;;;14.30;87.20;;;;;;4898514;29;20047;-84
2021/08/21 01:44:12;;;;;;;3.50;2.67;;;14.30;87.10;;;;;;4914839;29;20147;-84
2021/08/21 01:46:38;;;;;;;3.70;2.70;;;14.20;88.00;;;;;;4898892;29;20052;-84
2021/08/21 01:49:11;;;;;;;2.72;2.53;;;14.10;88.70;;;;;;4918747;29;20059;-84
2021/08/21 01:51:45;;;;;;;4.95;2.78;;;14.10;87.30;;;;;;4901465;29;20036;-84
2021/08/21 01:54:15;;;;;;;2.28;2.13;;;14.00;85.40;;;;;;4911732;29;20024;-84
2021/08/21 01:57:02;;;;;;;1.95;1.85;;;14.00;84.00;;;;;;4901975;29;20044;-84
2021/08/21 01:59:39;;;;;;;2.25;2.15;;;13.90;85.90;;;;;;4908712;29;20401;-84
2021/08/21 02:02:07;;;;;;;2.45;2.03;;;13.90;86.10;;;;;;4907469;29;20043;-84
2021/08/21 02:04:33;;;;;;;1.42;1.40;;;13.90;86.10;;;;;;4905799;29;20028;-82
2021/08/21 02:06:59;;;;;;;1.75;1.65;;;13.90;85.80;;;;;;4900163;29;20139;-83
2021/08/21 02:09:27;;;;;;;3.88;3.13;;;13.90;85.70;;;;;;4899495;29;20067;-84
2021/08/21 02:11:54;;;;;;;2.03;1.92;;;13.80;87.00;;;;;;4898693;29;20042;-84
2021/08/21 02:14:22;;;;;;;3.65;2.00;;;13.80;86.10;;;;;;4912103;29;20497;-83
2021/08/21 02:16:53;;;;;;;2.00;1.90;;;13.80;86.00;;;;;;4905443;29;20047;-83
2021/08/21 02:19:19;;;;;;;2.78;2.33;;;13.80;86.00;;;;;;4918584;29;20059;-84
2021/08/21 02:21:46;;;;;;;3.17;2.35;;;13.70;86.40;;;;;;4918041;29;20028;-83
2021/08/21 02:24:12;;;;;;;3.17;2.88;;;13.70;86.30;;;;;;4898276;29;20028;-83
2021/08/21 02:26:42;;;;;;;4.00;3.22;;;13.70;87.20;;;;;;4897140;29;20104;-84
2021/08/21 02:29:11;;;;;;;6.07;2.95;;;13.60;87.90;;;;;;4902300;29;20043;-84
2021/08/21 02:31:37;;;;;;;4.20;3.47;;;13.60;88.10;;;;;;4914322;29;20537;-84
2021/08/21 02:34:04;;;;;;;5.45;3.15;;;13.50;88.90;;;;;;4896399;29;20028;-83
2021/08/21 02:36:30;;;;;;;5.05;3.25;;;13.40;89.30;;;;;;4895608;29;20119;-83
2021/08/21 02:38:55;;;;;;;4.30;3.42;;;13.50;89.30;;;;;;4914007;29;20119;-83
2021/08/21 02:41:21;;;;;;;3.95;3.28;;;13.50;89.40;;;;;;4913278;29;20028;-82
2021/08/21 02:43:47;;;;;;;2.47;2.28;;;13.40;88.90;;;;;;4912983;29;20128;-83
2021/08/21 02:46:12;;;;;;;3.88;2.97;;;13.40;88.90;;;;;;4913972;29;20367;-83
2021/08/21 02:48:38;;;;;;;2.47;2.28;;;13.30;88.60;;;;;;4913549;29;20029;-83
2021/08/21 02:51:03;;;;;;;2.50;2.20;;;13.20;88.80;;;;;;4895805;29;20036;-83
2021/08/21 02:53:29;;;;;;;2.47;2.10;;;13.20;88.60;;;;;;4912173;29;20040;-83
2021/08/21 02:55:55;;;;;;;2.42;2.22;;;13.10;89.10;;;;;;4896915;29;20184;-83
2021/08/21 02:58:21;;;;;;;4.50;2.60;;;13.20;88.20;;;;;;4911334;29;20098;-83
2021/08/21 03:00:46;;;;;;;4.32;2.85;;;13.20;88.60;;;;;;4892928;29;20707;-83
2021/08/21 03:03:12;;;;;;;3.03;2.70;;;13.20;89.10;;;;;;4912147;29;20024;-83
2021/08/21 03:05:39;;;;;;;3.28;2.50;;;13.20;88.50;;;;;;4911387;29;20024;-83
2021/08/21 03:08:05;;;;;;;2.90;2.50;;;13.30;87.80;;;;;;4912535;29;20124;-82
2021/08/21 03:10:31;;;;;;;3.13;2.83;;;13.30;87.70;;;;;;4909144;29;20091;-82
2021/08/21 03:12:57;;;;;;;4.60;2.90;;;13.30;87.50;;;;;;4896329;29;20167;-83
2021/08/21 03:15:27;;;;;;;3.50;2.72;;;13.30;87.30;;;;;;4910890;29;20031;-83
2021/08/21 03:17:53;;;;;;;2.95;2.65;;;13.30;86.90;;;;;;4903348;29;20032;-83
2021/08/21 03:20:19;;;;;;;6.28;2.03;;;13.30;86.90;;;;;;4913607;29;20024;-83
2021/08/21 03:22:45;;;;;;;3.05;1.83;;;13.30;87.50;;;;;;4912101;29;20032;-83
2021/08/21 03:25:11;;;;;;;2.60;1.60;;;13.30;86.90;;;;;;4895600;29;20032;-83
2021/08/21 03:27:37;;;;;;;2.22;2.03;;;13.30;86.60;;;;;;4910525;29;20103;-83
2021/08/21 03:30:04;;;;;;;4.22;2.35;;;13.20;86.60;;;;;;4895859;29;20119;-83
2021/08/21 03:32:30;;;;;;;4.25;2.40;;;13.20;87.30;;;;;;4916400;29;20501;-83
2021/08/21 03:34:56;;;;;;;4.32;3.03;;;13.10;87.50;;;;;;4915960;29;20091;-83
2021/08/21 03:37:21;;;;;;;3.30;2.80;;;13.00;89.10;;;;;;4900313;29;20028;-83
2021/08/21 03:39:47;;;;;;;3.50;3.20;;;12.90;90.20;;;;;;4918950;29;20032;-83
2021/08/21 03:42:13;;;;;;;4.50;3.58;;;12.90;90.30;;;;;;4905629;29;20032;-83
2021/08/21 03:44:38;;;;;;;5.07;3.67;;;12.80;90.70;;;;;;4918638;29;20042;-82
2021/08/21 03:47:05;;;;;;;3.03;2.72;;;12.80;90.70;;;;;;4918681;29;20020;-83
2021/08/21 03:49:30;;;;;;;2.90;2.30;;;12.80;90.40;;;;;;4903032;29;20467;-83
2021/08/21 03:51:56;;;;;;;5.07;2.30;;;12.80;89.70;;;;;;4917871;29;20142;-83
2021/08/21 03:54:22;;;;;;;2.78;2.47;;;12.70;89.80;;;;;;4917674;29;20116;-83
2021/08/21 03:56:48;;;;;;;3.05;2.45;;;12.70;90.10;;;;;;4913183;29;20036;-83
2021/08/21 03:59:13;;;;;;;4.38;2.50;;;12.70;89.80;;;;;;4923135;29;20040;-83
2021/08/21 04:01:39;;;;;;;3.40;2.30;;;12.80;89.30;;;;;;4903178;29;20043;-83
2021/08/21 04:04:04;;;;;;;2.70;1.92;;;12.70;88.00;;;;;;4916354;29;20035;-83
2021/08/21 04:06:30;;;;;;;2.08;1.88;;;12.70;86.40;;;;;;4915122;29;20044;-83
2021/08/21 04:08:56;;;;;;;2.15;1.95;;;12.70;87.00;;;;;;4899506;29;20063;-83
2021/08/21 04:11:21;;;;;;;2.45;2.20;;;12.70;86.60;;;;;;4916692;29;20076;-83
2021/08/21 04:13:47;;;;;;;2.65;2.45;;;12.70;87.60;;;;;;4898936;29;20549;-83
2021/08/21 04:16:13;;;;;;;3.90;3.10;;;12.70;88.50;;;;;;4901138;29;20125;-83
2021/08/21 04:18:39;;;;;;;3.10;2.67;;;12.50;90.90;;;;;;4914918;29;20032;-83
2021/08/21 04:21:05;;;;;;;3.35;3.05;;;12.40;91.40;;;;;;4902493;29;20159;-86
2021/08/21 04:23:30;;;;;;;3.97;3.03;;;12.60;90.30;;;;;;4902640;29;20028;-83
2021/08/21 04:25:59;;;;;;;5.07;3.03;;;12.70;90.00;;;;;;4902003;29;20086;-85
2021/08/21 04:28:30;;;;;;;3.45;3.13;;;12.60;90.90;;;;;;4918982;29;20035;-84
2021/08/21 04:30:57;;;;;;;4.35;3.15;;;12.50;91.50;;;;;;4897313;29;20131;-84
2021/08/21 04:33:22;;;;;;;1.90;1.80;;;12.50;91.20;;;;;;4918685;29;20115;-83
2021/08/21 04:35:49;;;;;;;2.53;2.33;;;12.40;90.70;;;;;;4918441;29;20482;-84
2021/08/21 04:38:15;;;;;;;2.67;2.47;;;12.40;90.30;;;;;;4910098;29;20122;-84
2021/08/21 04:40:43;;;;;;;2.25;2.05;;;12.40;90.40;;;;;;4900382;29;20028;-84
2021/08/21 04:43:09;;;;;;;3.85;2.25;;;12.40;90.50;;;;;;4917812;29;20119;-83
2021/08/21 04:45:35;;;;;;;2.63;2.42;;;12.40;90.60;;;;;;4915464;29;20027;-83
2021/08/21 04:48:01;;;;;;;2.13;2.03;;;12.50;90.40;;;;;;4903675;29;20551;-84
2021/08/21 04:50:26;;;;;;;2.67;1.92;;;12.50;90.20;;;;;;4915103;29;20031;-84
2021/08/21 04:52:52;;;;;;;2.40;2.20;;;12.60;89.80;;;;;;4901178;29;20028;-84
2021/08/21 04:55:18;;;;;;;2.88;2.67;;;12.60;90.10;;;;;;4914952;29;20035;-84
2021/08/21 04:57:43;;;;;;;2.90;2.70;;;12.60;90.80;;;;;;4917957;29;20434;-83
2021/08/21 05:00:09;;;;;;;3.05;2.60;;;12.60;90.70;;;;;;4917331;29;20036;-84
2021/08/21 05:02:35;;;;;;;3.40;2.67;;;12.70;90.90;;;;;;4915912;29;20374;-83
2021/08/21 05:05:00;;;;;;;2.70;2.50;;;12.80;90.50;;;;;;4899631;29;20039;-83
2021/08/21 05:07:26;;;;;;;3.42;3.13;;;12.80;91.10;;;;;;4915432;29;20047;-83
2021/08/21 05:09:52;;;;;;;3.22;2.85;;;12.90;90.60;;;;;;4901578;29;20116;-84
2021/08/21 05:12:18;;;;;;;3.35;2.97;;;12.90;90.50;;;;;;4900672;29;20076;-83
2021/08/21 05:14:43;;;;;;;4.32;3.58;;;12.90;91.00;;;;;;4918044;29;20036;-84
2021/08/21 05:17:09;;;;;;;2.92;2.63;;;12.90;90.90;;;;;;4919154;29;20024;-84
2021/08/21 05:19:43;;;;;;;4.03;2.92;;;13.00;90.70;;;;;;4920024;29;20032;-84
2021/08/21 05:22:39;;;;;;;3.30;2.70;;;13.00;90.70;;;;;;4903295;29;20066;-84
2021/08/21 05:25:05;;;;;;;5.53;2.90;;;13.10;90.80;;;;;;4916412;29;20020;-84
2021/08/21 05:27:32;;;;;;;4.50;3.33;;;13.10;90.60;;;;;;4919378;29;20028;-84
2021/08/21 05:29:59;;;;;;;3.42;3.13;;;13.10;90.80;;;;;;4901168;29;20120;-84
2021/08/21 05:32:26;;;;;;;4.38;3.47;;;13.10;90.90;;;;;;4916974;28;20083;-84
2021/08/21 05:34:52;;;;;;;5.00;3.70;;;13.10;91.20;;;;;;4921677;29;20024;-83
2021/08/21 05:37:21;;;;;;;4.53;3.63;;;13.10;91.40;;;;;;4908624;29;20028;-84
2021/08/21 05:39:46;;;;;;;4.10;3.53;;;13.10;91.30;;;;;;4916917;29;20055;-84
2021/08/21 05:42:12;;;;;;;7.10;3.70;;;13.20;91.20;;;;;;4919840;29;20040;-83
2021/08/21 05:44:37;;;;;;;5.53;3.85;;;13.30;91.20;;;;;;4923258;29;20824;-84
2021/08/21 05:47:03;;;;;;;5.07;4.20;;;13.30;91.30;;;;;;4898301;29;20512;-84
2021/08/21 05:49:32;;;;;;;5.40;3.92;;;13.40;91.30;;;;;;4919996;29;20079;-84
2021/08/21 05:51:57;;;;;;;;;;;13.50;91.20;;;;;;4915789;29;20477;-84
2021/08/21 05:54:23;;;;;;;5.97;4.10;;;13.60;91.20;;;;;;4900146;29;19915;-83
2021/08/21 05:56:49;;;;;;;6.53;4.20;;;13.60;91.60;;;;;;4916984;29;20040;-84
2021/08/21 05:59:14;;;;;;;4.97;4.28;;;13.70;91.90;;;;;;4902820;29;20035;-83
2021/08/21 06:01:40;;;;;;;5.53;4.40;;;13.70;92.10;;;;;;4914087;28;20411;-84
2021/08/21 06:04:06;;;;;;;5.00;4.00;;;13.70;92.10;;;;;;4901940;29;20043;-84
2021/08/21 06:06:36;;;;;;;7.28;4.35;;;13.80;92.00;;;;;;4904046;29;20031;-83
2021/08/21 06:09:03;;;;;;;6.97;4.20;;;13.90;92.10;;;;;;4914977;29;20338;-83
2021/08/21 06:11:28;;;;;;;5.03;3.65;;;13.90;92.20;;;;;;4891280;29;20038;-83
2021/08/21 06:13:54;;;;;;;5.25;4.18;;;14.10;92.30;;;;;;4910979;29;20115;-83
2021/08/21 06:16:20;;;;;;;5.68;4.35;;;14.20;92.30;;;;;;4907690;29;20031;-83
2021/08/21 06:18:46;;;;;;;6.03;4.80;;;14.30;92.20;;;;;;4891097;29;20083;-83
2021/08/21 06:21:12;;;;;;;6.45;4.88;;;14.40;92.50;;;;;;4907856;29;20028;-83
2021/08/21 06:23:38;;;;;;;5.57;4.60;;;14.50;92.20;;;;;;4907561;29;20051;-83
2021/08/21 06:26:03;;;;;;;8.18;4.93;;;14.60;92.20;;;;;;4908448;29;20447;-83
2021/08/21 06:28:29;;;;;;;6.50;4.47;;;14.70;92.20;;;;;;4909591;29;20497;-83
2021/08/21 06:30:54;;;;;;;7.05;5.15;;;14.80;92.30;;;;;;4914671;29;20040;-83
2021/08/21 06:33:30;;;;;;;7.35;5.03;;;14.90;92.10;;;;;;4894888;29;20032;-83
2021/08/21 06:35:57;;;;;;;10.10;6.20;;;15.00;92.40;;;;;;4919761;29;20035;-84
2021/08/21 06:38:26;;;;;;;11.00;6.03;;;15.20;92.30;;;;;;4917448;29;20032;-84
2021/08/21 06:40:51;;;;;;;8.95;6.78;;;15.30;92.30;;;;;;4906123;29;20032;-83
2021/08/21 06:43:18;;;;;;;7.72;5.85;;;15.40;92.00;;;;;;4915739;29;20024;-84
2021/08/21 06:45:43;;;;;;;9.85;6.65;;;15.50;91.70;;;;;;4911859;29;20024;-83
2021/08/21 06:48:09;;;;;;;8.75;6.82;;;15.70;91.40;;;;;;4899989;29;20024;-83
2021/08/21 06:50:36;;;;;;;8.70;6.22;;;15.80;91.50;;;;;;4919647;29;20545;-83
2021/08/21 06:53:02;;;;;;;7.85;6.70;;;15.90;91.70;;;;;;4921269;29;20466;-83
2021/08/21 06:55:29;;;;;;;8.77;5.30;;;16.00;92.20;;;;;;4914246;29;20051;-83
2021/08/21 06:57:54;;;;;;;9.82;7.45;;;16.10;91.90;;;;;;4896306;29;20033;-83
2021/08/21 07:00:20;;;;;;;9.40;6.43;;;16.20;91.80;;;;;;4895985;29;20481;-83
2021/08/21 07:02:46;;;;;;;8.95;6.38;;;16.30;91.40;;;;;;4908301;29;20524;-84
2021/08/21 07:05:11;;;;;;;9.02;7.07;;;16.40;91.30;;;;;;4909136;29;20035;-84
2021/08/21 07:07:37;;;;;;;7.82;6.63;;;16.50;91.40;;;;;;4914781;29;20409;-84
2021/08/21 07:10:04;;;;;;;7.55;6.05;;;16.70;91.70;;;;;;4918453;29;21082;-84
2021/08/21 07:12:30;;;;;;;9.00;6.22;;;16.80;91.00;;;;;;4919662;29;20602;-84
2021/08/21 07:14:56;;;;;;;8.98;6.30;;;16.90;90.80;;;;;;4919863;29;20036;-84
2021/08/21 07:17:21;;;;;;;12.55;7.38;;;17.10;90.30;;;;;;4904960;29;20039;-84
2021/08/21 07:19:47;;;;;;;11.75;6.55;;;17.20;91.30;;;;;;4901722;29;20397;-84
2021/08/21 07:22:13;;;;;;;9.63;7.07;;;17.40;90.40;;;;;;4920943;29;20496;-84
2021/08/21 07:24:41;;;;;;;8.75;6.30;;;17.50;89.00;;;;;;4922138;29;20024;-84
2021/08/21 07:27:10;;;;;;;9.90;6.00;;;17.60;88.80;;;;;;4914144;29;20040;-84
2021/08/21 07:29:36;;;;;;;9.13;6.18;;;17.70;88.10;;;;;;4912826;29;20032;-84
2021/08/21 07:32:01;;;;;;;6.57;5.40;;;17.80;88.10;;;;;;4921452;29;20036;-84
2021/08/21 07:34:27;;;;;;;8.40;5.75;;;17.90;87.10;;;;;;4919208;29;20052;-84
2021/08/21 07:36:53;;;;;;;8.32;5.85;;;18.00;88.40;;;;;;4919066;29;20039;-84
2021/08/21 07:39:20;;;;;;;9.80;6.63;;;18.10;87.70;;;;;;4920009;29;20079;-84
2021/08/21 07:41:45;;;;;;;11.18;6.97;;;18.30;87.80;;;;;;4903128;29;20386;-84
2021/08/21 07:44:11;;;;;;;8.52;6.30;;;18.30;86.70;;;;;;4918024;29;20035;-84
2021/08/21 07:46:37;;;;;;;11.80;5.95;;;18.40;86.50;;;;;;4901208;29;20536;-83
2021/08/21 07:49:03;;;;;;;8.23;5.97;;;18.50;85.70;;;;;;4918505;29;20118;-82
2021/08/21 07:51:29;;;;;;;9.23;5.70;;;18.50;86.20;;;;;;4916337;29;20028;-83
2021/08/21 07:53:54;;;;;;;7.30;5.53;;;18.60;85.20;;;;;;4904416;29;20088;-83
2021/08/21 07:56:20;;;;;;;9.63;6.40;;;18.70;86.60;;;;;;4903279;29;20036;-82
2021/08/21 07:58:46;;;;;;;10.70;5.90;;;18.80;86.90;;;;;;4920394;29;20123;-83
2021/08/21 08:01:11;;;;;;;7.88;5.88;;;19.00;86.80;;;;;;4917856;29;20036;-84
2021/08/21 08:03:37;;;;;;;9.35;5.93;;;19.10;85.60;;;;;;4898916;29;20028;-84
2021/08/21 08:06:03;;;;;;;8.00;5.95;;;19.10;85.60;;;;;;4916751;29;20028;-83
2021/08/21 08:08:29;;;;;;;9.35;6.05;;;19.20;84.70;;;;;;4920973;29;20175;-83
2021/08/21 08:10:54;;;;;;;7.88;6.00;;;19.40;84.80;;;;;;4902708;29;20043;-83
2021/08/21 08:13:20;;;;;;;8.55;5.97;;;19.50;82.80;;;;;;4907508;29;20041;-84
2021/08/21 08:15:46;;;;;;;6.38;5.10;;;19.60;83.60;;;;;;4892148;29;20037;-84
2021/08/21 08:18:11;;;;;;;8.60;5.95;;;19.80;82.80;;;;;;4896591;29;20068;-84
2021/08/21 08:20:37;;;;;;;10.98;5.30;;;19.80;80.80;;;;;;4904658;29;20028;-86
2021/08/21 08:23:04;;;;;;;7.10;5.00;;;19.90;82.00;;;;;;4912057;29;20103;-83
2021/08/21 08:25:31;;;;;;;9.93;5.65;;;20.10;81.00;;;;;;4921929;29;20087;-83
2021/08/21 08:27:56;;;;;;;6.13;4.95;;;20.10;80.50;;;;;;4894300;29;20036;-84
2021/08/21 08:30:22;;;;;;;6.35;4.88;;;20.10;80.30;;;;;;4920313;28;20036;-84
2021/08/21 08:32:48;;;;;;;6.43;5.05;;;20.20;79.80;;;;;;4917290;29;20115;-84
2021/08/21 08:35:14;;;;;;;10.45;5.35;;;20.20;79.50;;;;;;4904832;29;20036;-84
2021/08/21 08:37:41;;;;;;;7.57;4.97;;;20.20;80.50;;;;;;4895124;29;20039;-84
2021/08/21 08:40:08;;;;;;;7.22;5.18;;;20.40;79.90;;;;;;4917262;29;20394;-83
2021/08/21 08:42:37;;;;;;;8.93;4.70;;;20.40;79.00;;;;;;4904204;29;20036;-83
2021/08/21 08:45:04;;;;;;;6.50;4.95;;;20.40;78.80;;;;;;4921744;29;20142;-83
2021/08/21 08:47:31;;;;;;;7.65;4.25;;;20.50;78.20;;;;;;4914250;29;20028;-83
2021/08/21 08:50:03;;;;;;;6.65;4.85;;;20.50;77.60;;;;;;4904079;29;20036;-83
2021/08/21 08:52:29;;;;;;;8.57;5.05;;;20.60;77.80;;;;;;4915379;29;20030;-83
2021/08/21 08:54:55;;;;;;;5.13;4.18;;;20.70;77.10;;;;;;4913793;29;20036;-83
2021/08/21 08:57:38;;;;;;;6.53;4.35;;;20.80;79.60;;;;;;4913091;29;20477;-84
2021/08/21 09:00:10;;;;;;;7.78;4.80;;;21.10;77.60;;;;;;4916143;29;20040;-84
2021/08/21 09:02:39;;;;;;;11.07;6.78;;;21.30;77.80;;;;;;4912331;28;20046;-83
2021/08/21 09:05:08;;;;;;;26.90;13.52;;;21.50;76.90;;;;;;4920650;29;20127;-84
2021/08/21 09:07:38;;;;;;;6.60;4.55;;;21.60;77.50;;;;;;4916720;29;20146;-83
2021/08/21 09:10:21;;;;;;;6.00;4.43;;;21.60;74.80;;;;;;4900965;29;20515;-84
2021/08/21 09:12:50;;;;;;;5.75;4.38;;;21.50;74.90;;;;;;4901265;29;20536;-83
2021/08/21 09:15:28;;;;;;;6.57;4.70;;;21.60;75.10;;;;;;4921449;29;20094;-83
2021/08/21 09:18:05;;;;;;;6.45;4.47;;;21.80;75.50;;;;;;4917181;29;20031;-83
2021/08/21 09:20:52;;;;;;;6.55;4.75;;;21.80;73.10;;;;;;4904678;29;20086;-83
2021/08/21 09:23:29;;;;;;;6.07;4.45;;;21.90;72.70;;;;;;4914316;29;20032;-83
2021/08/21 09:26:08;;;;;;;6.20;4.75;;;21.90;72.00;;;;;;4915507;29;20036;-83
2021/08/21 09:28:40;;;;;;;6.72;4.38;;;21.90;72.80;;;;;;4920431;29;20514;-83
2021/08/21 09:31:12;;;;;;;5.53;4.20;;;21.70;72.20;;;;;;4900808;29;20043;-84
2021/08/21 09:33:50;;;;;;;4.38;3.92;;;21.70;72.30;;;;;;4913303;29;20039;-83
2021/08/21 09:36:26;;;;;;;;;;;21.70;72.30;;;;;;4917638;29;20038;-83
2021/08/21 09:38:51;;;;;;;6.07;4.10;;;21.70;70.80;;;;;;4918105;29;19921;-83
2021/08/21 09:41:17;;;;;;;6.85;4.05;;;21.90;72.80;;;;;;4897716;29;20032;-82
2021/08/21 09:43:42;;;;;;;7.25;4.28;;;22.20;70.80;;;;;;4900616;29;20027;-84
2021/08/21 09:46:12;;;;;;;5.30;4.00;;;22.30;70.30;;;;;;4896741;29;20036;-83
2021/08/21 09:49:02;;;;;;;5.30;4.35;;;22.40;70.60;;;;;;4916783;29;20115;-83
2021/08/21 09:51:48;;;;;;;7.25;4.35;;;22.60;70.30;;;;;;4917957;29;20095;-83
2021/08/21 09:54:19;;;;;;;11.98;5.10;;;22.70;69.10;;;;;;4922243;29;20039;-84
2021/08/21 09:56:53;;;;;;;7.68;4.53;;;22.70;70.50;;;;;;4914173;29;20039;-84
2021/08/21 09:59:42;;;;;;;6.85;4.57;;;22.60;68.70;;;;;;4911282;29;20434;-83
2021/08/21 10:02:13;;;;;;;6.70;4.18;;;22.50;68.10;;;;;;4912545;28;20039;-82
2021/08/21 10:04:41;;;;;;;6.68;4.20;;;22.60;69.70;;;;;;4916086;29;20474;-84
2021/08/21 10:07:09;;;;;;;;;;;22.80;69.60;;;;;;4913879;29;20048;-83
2021/08/21 10:09:38;;;;;;;6.45;4.28;;;22.80;68.20;;;;;;4896374;29;20814;-83
2021/08/21 10:12:06;;;;;;;5.43;3.95;;;23.00;70.40;;;;;;4912345;29;20535;-83
2021/08/21 10:14:32;;;;;;;;;;;23.20;68.90;;;;;;4913369;29;20027;-83
2021/08/21 10:16:58;;;;;;;5.40;3.88;;;23.20;67.10;;;;;;4913279;29;20300;-84
2021/08/21 10:19:24;;;;;;;5.40;4.05;;;23.30;66.20;;;;;;4897887;29;20039;-84
2021/08/21 10:21:55;;;;;;;4.15;3.47;;;23.50;69.10;;;;;;4896247;29;20031;-83
2021/08/21 10:24:29;;;;;;;5.78;3.88;;;23.50;65.60;;;;;;4909456;29;20034;-83
2021/08/21 10:27:03;;;;;;;4.53;4.03;;;23.60;65.70;;;;;;4911402;29;20103;-83
2021/08/21 10:29:30;;;;;;;5.20;3.90;;;23.60;64.40;;;;;;4893177;29;20043;-83
2021/08/21 10:31:55;;;;;;;5.18;3.70;;;23.70;65.70;;;;;;4912132;29;20044;-83
2021/08/21 10:34:21;;;;;;;6.30;3.80;;;23.80;67.20;;;;;;4894916;29;20028;-83
2021/08/21 10:36:51;;;;;;;4.68;3.42;;;23.90;67.00;;;;;;4897885;29;20082;-83
2021/08/21 10:39:33;;;;;;;7.65;3.75;;;23.90;65.20;;;;;;4910051;29;20440;-84
2021/08/21 10:42:21;;;;;;;5.32;3.60;;;24.00;66.00;;;;;;4912527;29;20028;-83
2021/08/21 10:44:47;;;;;;;5.35;4.05;;;23.90;65.60;;;;;;4913749;29;20111;-85
2021/08/21 10:47:32;;;;;;;4.57;3.75;;;23.90;64.80;;;;;;4892541;29;20063;-85
2021/08/21 10:50:28;;;;;;;7.20;4.47;;;24.00;65.10;;;;;;4909862;29;20032;-84
2021/08/21 10:52:58;;;;;;;5.25;4.00;;;23.90;60.80;;;;;;4893544;29;20087;-85
2021/08/21 10:55:25;;;;;;;5.32;4.30;;;24.00;63.80;;;;;;4894137;29;20211;-85
2021/08/21 10:58:04;;;;;;;4.97;3.97;;;23.80;64.30;;;;;;4909624;29;20032;-84
2021/08/21 11:00:38;;;;;;;5.38;3.65;;;23.90;65.80;;;;;;4908941;28;20040;-85
2021/08/21 11:03:08;;;;;;;6.10;4.18;;;24.10;64.60;;;;;;4909605;29;20028;-84
2021/08/21 11:06:03;;;;;;;7.35;4.25;;;24.20;63.50;;;;;;4909403;29;20154;-85
2021/08/21 11:08:32;;;;;;;6.50;4.93;;;24.20;62.40;;;;;;4908693;29;20202;-85
2021/08/21 11:11:07;;;;;;;30.48;6.70;;;24.20;63.00;;;;;;4916336;29;20506;-85
2021/08/21 11:14:05;;;;;;;9.18;4.03;;;24.30;63.10;;;;;;4914990;29;20079;-85
2021/08/21 11:19:28;;;;;;;6.63;4.43;;;24.30;62.40;;;;;;4917956;29;20028;-84
2021/08/21 11:22:14;;;;;;;4.13;3.65;;;24.30;59.30;;;;;;4911936;29;20036;-84
2021/08/21 11:24:52;;;;;;;6.00;4.25;;;24.40;61.20;;;;;;4913598;29;20037;-84
2021/08/21 11:27:23;;;;;;;6.18;3.78;;;24.30;61.80;;;;;;4908511;29;20025;-85
2021/08/21 11:30:09;;;;;;;5.72;3.65;;;24.40;61.70;;;;;;4914305;29;20087;-84
2021/08/21 11:32:42;;;;;;;5.45;3.78;;;24.40;60.80;;;;;;4906696;29;20413;-84
2021/08/21 11:35:08;;;;;;;5.30;3.70;;;24.40;60.00;;;;;;4915904;29;20035;-85
2021/08/21 11:37:34;;;;;;;4.97;3.80;;;24.50;56.40;;;;;;4918197;29;20474;-85
2021/08/21 11:40:00;;;;;;;5.10;3.42;;;24.50;57.70;;;;;;4911874;29;20107;-85
2021/08/21 11:42:50;;;;;;;8.15;3.70;;;24.50;59.60;;;;;;4925787;29;20044;-84
2021/08/21 11:45:17;;;;;;;4.15;3.42;;;24.50;60.30;;;;;;4900866;29;20462;-84
2021/08/21 11:47:43;;;;;;;4.20;3.27;;;24.50;59.20;;;;;;4894524;29;20044;-84
2021/08/21 11:50:22;;;;;;;5.03;3.53;;;24.50;60.40;;;;;;4894633;29;20036;-85
2021/08/21 11:52:49;;;;;;;7.25;4.25;;;24.50;60.50;;;;;;4901703;29;20032;-84
2021/08/21 11:55:15;;;;;;;5.18;3.83;;;24.70;60.20;;;;;;4904045;29;20115;-85
2021/08/21 11:57:46;;;;;;;5.93;3.35;;;24.70;60.30;;;;;;4923739;29;20059;-85
2021/08/21 12:00:13;;;;;;;19.77;5.15;;;24.60;59.00;;;;;;4905265;29;20634;-85
2021/08/21 12:03:10;;;;;;;5.30;3.60;;;24.70;58.00;;;;;;4912662;28;20091;-84
2021/08/21 12:05:41;;;;;;;4.70;3.53;;;24.60;60.50;;;;;;4896780;29;20036;-85
2021/08/21 12:08:19;;;;;;;4.95;3.60;;;24.70;58.40;;;;;;4898308;29;20047;-85
2021/08/21 12:11:05;;;;;;;5.70;4.07;;;24.70;59.50;;;;;;4896963;29;20225;-85
2021/08/21 12:13:33;;;;;;;47.72;11.82;;;24.80;57.10;;;;;;4896506;29;20379;-85
2021/08/21 12:16:10;;;;;;;6.35;4.10;;;24.70;59.00;;;;;;4912168;29;20025;-85
2021/08/21 12:18:38;;;;;;;4.25;3.58;;;24.70;57.90;;;;;;4900972;29;20036;-85
2021/08/21 12:21:06;;;;;;;6.85;3.78;;;24.70;58.40;;;;;;4899467;29;20032;-85
2021/08/21 12:23:32;;;;;;;;;;;24.80;58.70;;;;;;4901210;29;20028;-86
2021/08/21 12:26:00;;;;;;;5.80;3.72;;;24.90;59.90;;;;;;4913680;29;19918;-86
2021/08/21 12:28:36;;;;;;;6.97;4.22;;;24.90;57.20;;;;;;4913318;29;20110;-86
2021/08/21 12:31:04;;;;;;;5.30;3.80;;;25.00;59.40;;;;;;4912538;29;20040;-85
2021/08/21 12:33:33;;;;;;;4.93;3.95;;;25.00;59.70;;;;;;4901116;29;20032;-85
2021/08/21 12:36:11;;;;;;;5.72;3.83;;;25.00;58.50;;;;;;4899660;29;20118;-85
2021/08/21 12:38:37;;;;;;;6.53;3.70;;;24.90;59.40;;;;;;4904532;29;20036;-85
2021/08/21 12:41:04;;;;;;;6.68;3.65;;;24.80;59.10;;;;;;4916511;29;20031;-85
2021/08/21 12:43:30;;;;;;;;;;;24.70;59.20;;;;;;4914235;29;20039;-85
2021/08/21 12:45:56;;;;;;;6.97;3.80;;;24.80;60.10;;;;;;4914496;29;19915;-85
2021/08/21 12:48:25;;;;;;;7.97;3.80;;;24.90;60.40;;;;;;4908411;29;20039;-84
2021/08/21 12:50:51;;;;;;;7.80;4.55;;;24.90;59.70;;;;;;4913635;29;20040;-85
2021/08/21 12:53:21;;;;;;;16.90;5.60;;;25.00;58.50;;;;;;4917898;29;20044;-84
2021/08/21 12:55:47;;;;;;;7.18;4.03;;;25.10;58.80;;;;;;4898609;29;20045;-84
2021/08/21 12:58:13;;;;;;;4.75;3.70;;;25.00;58.10;;;;;;4913614;29;20024;-85